Time;durP1;ratioP1;P1;durP2;ratioP2;P2;SDS_P1;SDS_P2;PMS_P1;PMS_P2;Temp;Humidity;BMP_temperature;BMP_pressure;BME280_temperature;BME280_humidity;BME280_pressure;Samples;Min_cycle;Max_cycle;Signal;HPM_P1;HPM_P2
2022/10/12 00:00:57;;;;;;;;;;;11.50;99.90;;;;;;5073185;28;19909;-77
2022/10/12 00:03:22;;;;;;;;;;;11.90;99.90;;;;;;5057283;28;19920;-75
2022/10/12 00:05:58;;;;;;;;;;;12.20;99.90;;;;;;5052997;28;20004;-75
2022/10/12 00:08:24;;;;;;;;;;;12.40;99.90;;;;;;5053110;28;19912;-76
2022/10/12 00:10:49;;;;;;;;;;;12.40;99.90;;;;;;5053059;28;19916;-76
2022/10/12 00:13:15;;;;;;;;;;;12.20;99.90;;;;;;5052539;28;19912;-75
2022/10/12 00:15:40;;;;;;;;;;;12.30;99.90;;;;;;5053092;28;20365;-75
2022/10/12 00:18:06;;;;;;;;;;;12.30;99.90;;;;;;5052574;28;19912;-74
2022/10/12 00:20:32;;;;;;;;;;;12.30;99.90;;;;;;5053055;28;19954;-75
2022/10/12 00:22:58;;;;;;;;;;;12.30;99.90;;;;;;5052506;28;19988;-76
2022/10/12 00:25:24;;;;;;;;;;;12.30;99.90;;;;;;5052572;28;19916;-74
2022/10/12 00:27:49;;;;;;;;;;;12.30;99.90;;;;;;5055250;28;19909;-76
2022/10/12 00:30:15;;;;;;;;;;;12.30;99.90;;;;;;5056551;28;19913;-74
2022/10/12 00:32:40;;;;;;;;;;;12.20;99.90;;;;;;5065167;28;19954;-75
2022/10/12 00:35:06;;;;;;;;;;;12.10;99.90;;;;;;5076720;28;20011;-75
2022/10/12 00:37:32;;;;;;;;;;;12.10;99.90;;;;;;5076664;28;19962;-76
2022/10/12 00:39:59;;;;;;;;;;;12.00;99.90;;;;;;5076705;28;19909;-77
2022/10/12 00:42:25;;;;;;;;;;;12.00;99.90;;;;;;5076130;28;19908;-76
2022/10/12 00:44:51;;;;;;;;;;;12.00;99.90;;;;;;5076603;28;19908;-76
2022/10/12 00:47:23;;;;;;;;;;;12.00;99.90;;;;;;5076485;28;19958;-76
2022/10/12 00:50:19;;;;;;;;;;;11.90;99.90;;;;;;5076309;28;19928;-77
2022/10/12 00:52:45;;;;;;;;;;;11.80;99.90;;;;;;5063399;28;19935;-75
2022/10/12 00:55:14;;;;;;;;;;;11.60;99.90;;;;;;5076305;28;19908;-77
2022/10/12 00:57:39;;;;;;;;;;;11.40;99.90;;;;;;5076313;28;20004;-75
2022/10/12 01:00:06;;;;;;;;;;;11.50;99.90;;;;;;5091853;28;19999;-78
2022/10/12 01:02:33;;;;;;;;;;;11.40;99.90;;;;;;5076014;28;19915;-76
2022/10/12 01:04:59;;;;;;;;;;;11.50;99.90;;;;;;5076191;28;19961;-77
2022/10/12 01:07:25;;;;;;;;;;;11.30;99.90;;;;;;5074873;28;19909;-75
2022/10/12 01:09:51;;;;;;;;;;;11.40;99.90;;;;;;5076072;28;19915;-75
2022/10/12 01:12:18;;;;;;;;;;;11.60;99.90;;;;;;5075789;28;20419;-76
2022/10/12 01:14:44;;;;;;;;;;;11.70;99.90;;;;;;5076024;28;19909;-75
2022/10/12 01:17:17;;;;;;;;;;;11.70;99.90;;;;;;5075801;28;19920;-75
2022/10/12 01:20:09;;;;;;;;;;;11.70;99.90;;;;;;5075866;28;19926;-75
2022/10/12 01:22:40;;;;;;;;;;;11.70;99.90;;;;;;5075581;28;19908;-77
2022/10/12 01:25:17;;;;;;;;;;;11.50;99.90;;;;;;5075935;28;19912;-77
2022/10/12 01:27:54;;;;;;;;;;;11.50;99.90;;;;;;5076461;28;20425;-77
2022/10/12 01:30:40;;;;;;;;;;;11.30;99.90;;;;;;5075549;28;19909;-75
2022/10/12 01:33:13;;;;;;;;;;;11.00;99.90;;;;;;5075039;28;19912;-74
2022/10/12 01:35:57;;;;;;;;;;;11.10;99.90;;;;;;5075618;28;19908;-76
2022/10/12 01:38:28;;;;;;;;;;;11.20;99.90;;;;;;5075443;28;19913;-75
2022/10/12 01:41:00;;;;;;;;;;;11.40;99.90;;;;;;5075192;28;20368;-78
2022/10/12 01:43:33;;;;;;;;;;;11.50;99.90;;;;;;5075131;28;19912;-75
2022/10/12 01:46:18;;;;;;;;;;;11.50;99.90;;;;;;5075484;28;19908;-78
2022/10/12 01:48:45;;;;;;;;;;;11.50;99.90;;;;;;5064325;28;19920;-76
2022/10/12 01:51:14;;;;;;;;;;;11.50;99.90;;;;;;5075423;28;19908;-77
2022/10/12 01:53:46;;;;;;;;;;;11.40;99.90;;;;;;5074838;28;19999;-74
2022/10/12 01:56:26;;;;;;;;;;;11.30;99.90;;;;;;5075275;28;19930;-76
2022/10/12 01:59:07;;;;;;;;;;;11.20;99.90;;;;;;5075168;28;20011;-75
2022/10/12 02:01:39;;;;;;;;;;;11.30;99.90;;;;;;5075153;28;19909;-76
2022/10/12 02:04:17;;;;;;;;;;;11.40;99.90;;;;;;5074693;28;19908;-75
2022/10/12 02:06:45;;;;;;;;;;;11.50;99.90;;;;;;5074796;28;19912;-76
2022/10/12 02:09:11;;;;;;;;;;;11.50;99.90;;;;;;5075023;28;19908;-76
2022/10/12 02:11:38;;;;;;;;;;;11.40;99.90;;;;;;5075056;28;20448;-76
2022/10/12 02:14:18;;;;;;;;;;;11.40;99.90;;;;;;5057421;28;20381;-75
2022/10/12 02:16:50;;;;;;;;;;;11.40;99.90;;;;;;5054790;28;20399;-75
2022/10/12 02:19:18;;;;;;;;;;;11.40;99.90;;;;;;5054848;28;19913;-75
2022/10/12 02:21:45;;;;;;;;;;;11.40;99.90;;;;;;5054760;28;19978;-75
2022/10/12 02:24:12;;;;;;;;;;;11.30;99.90;;;;;;5054291;28;20381;-74
2022/10/12 02:26:40;;;;;;;;;;;11.10;99.90;;;;;;5054582;28;19931;-76
2022/10/12 02:29:08;;;;;;;;;;;10.60;99.90;;;;;;5055208;28;20452;-76
2022/10/12 02:31:35;;;;;;;;;;;10.30;99.90;;;;;;5054555;28;19963;-75
2022/10/12 02:34:01;;;;;;;;;;;10.20;99.90;;;;;;5070208;28;19947;-78
2022/10/12 02:36:33;;;;;;;;;;;10.60;99.90;;;;;;5074520;28;19959;-76
2022/10/12 02:39:01;;;;;;;;;;;10.90;99.90;;;;;;5074397;28;19935;-77
2022/10/12 02:41:29;;;;;;;;;;;11.10;99.90;;;;;;5074284;28;19938;-78
2022/10/12 02:43:57;;;;;;;;;;;11.10;99.90;;;;;;5073928;28;19908;-76
2022/10/12 02:46:24;;;;;;;;;;;11.00;99.90;;;;;;5074231;28;19908;-77
2022/10/12 02:48:50;;;;;;;;;;;10.90;99.90;;;;;;5074014;28;19927;-75
2022/10/12 02:51:17;;;;;;;;;;;11.00;99.90;;;;;;5073400;28;19952;-76
2022/10/12 02:53:44;;;;;;;;;;;11.00;99.90;;;;;;5073625;28;20380;-75
2022/10/12 02:56:11;;;;;;;;;;;11.00;99.90;;;;;;5074432;28;20364;-75
2022/10/12 02:58:36;;;;;;;;;;;10.90;99.90;;;;;;5072605;28;19916;-77
2022/10/12 03:01:02;;;;;;;;;;;10.90;99.90;;;;;;5074045;28;19958;-77
2022/10/12 03:03:27;;;;;;;;;;;10.90;99.90;;;;;;5073525;28;19909;-74
2022/10/12 03:05:53;;;;;;;;;;;10.80;99.90;;;;;;5073715;28;19943;-76
2022/10/12 03:08:19;;;;;;;;;;;10.70;99.90;;;;;;5073922;28;20369;-74
2022/10/12 03:10:44;;;;;;;;;;;10.70;99.90;;;;;;5073888;28;19916;-74
2022/10/12 03:13:10;;;;;;;;;;;10.90;99.90;;;;;;5073472;28;19909;-76
2022/10/12 03:15:35;;;;;;;;;;;11.00;99.90;;;;;;5073783;28;20402;-76
2022/10/12 03:18:01;;;;;;;;;;;11.00;99.90;;;;;;5073393;28;19912;-73
2022/10/12 03:20:27;;;;;;;;;;;11.00;99.90;;;;;;5073784;28;19908;-74
2022/10/12 03:22:52;;;;;;;;;;;11.00;99.90;;;;;;5073247;28;19995;-75
2022/10/12 03:25:18;;;;;;;;;;;11.00;99.90;;;;;;5073668;28;20405;-76
2022/10/12 03:27:43;;;;;;;;;;;10.90;99.90;;;;;;5074114;28;19999;-76
2022/10/12 03:30:10;;;;;;;;;;;10.80;99.90;;;;;;5073387;28;19912;-76
2022/10/12 03:32:36;;;;;;;;;;;10.80;99.90;;;;;;5073276;28;19960;-78
2022/10/12 03:35:02;;;;;;;;;;;10.80;99.90;;;;;;5073477;28;19908;-75
2022/10/12 03:37:27;;;;;;;;;;;10.80;99.90;;;;;;5073538;28;19915;-74
2022/10/12 03:39:53;;;;;;;;;;;10.70;99.90;;;;;;5073423;28;19931;-76
2022/10/12 03:42:18;;;;;;;;;;;10.70;99.90;;;;;;5073101;28;19908;-76
2022/10/12 03:44:44;;;;;;;;;;;10.60;99.90;;;;;;5073793;28;19934;-77
2022/10/12 03:47:09;;;;;;;;;;;10.60;99.90;;;;;;5072082;28;20339;-76
2022/10/12 03:49:35;;;;;;;;;;;10.40;99.90;;;;;;5073312;28;19970;-77
2022/10/12 03:52:00;;;;;;;;;;;10.30;99.90;;;;;;5073003;28;19913;-75
2022/10/12 03:54:26;;;;;;;;;;;10.00;99.90;;;;;;5072800;28;19955;-74
2022/10/12 03:56:52;;;;;;;;;;;10.20;99.90;;;;;;5073224;28;19915;-77
2022/10/12 03:59:17;;;;;;;;;;;10.30;99.90;;;;;;5073145;28;20011;-74
2022/10/12 04:01:43;;;;;;;;;;;10.50;99.90;;;;;;5073511;28;19915;-77
2022/10/12 04:04:09;;;;;;;;;;;10.50;99.90;;;;;;5079294;28;19908;-74
2022/10/12 04:06:34;;;;;;;;;;;10.60;99.90;;;;;;5079601;28;19909;-76
2022/10/12 04:09:00;;;;;;;;;;;10.60;99.90;;;;;;5079749;28;20419;-77
2022/10/12 04:11:25;;;;;;;;;;;10.60;99.90;;;;;;5079807;28;19913;-75
2022/10/12 04:13:51;;;;;;;;;;;10.60;99.90;;;;;;5079365;28;19916;-78
2022/10/12 04:16:17;;;;;;;;;;;10.50;99.90;;;;;;5079696;28;19930;-74
2022/10/12 04:18:42;;;;;;;;;;;10.40;99.90;;;;;;5079348;28;19912;-75
2022/10/12 04:21:10;;;;;;;;;;;10.10;99.90;;;;;;5079714;28;19958;-77
2022/10/12 04:23:35;;;;;;;;;;;10.10;99.90;;;;;;5079281;28;19909;-77
2022/10/12 04:26:01;;;;;;;;;;;9.90;99.90;;;;;;5079616;28;19915;-76
2022/10/12 04:28:26;;;;;;;;;;;9.90;99.90;;;;;;5080119;28;19908;-74
2022/10/12 04:30:52;;;;;;;;;;;9.60;99.90;;;;;;5079292;28;19957;-75
2022/10/12 04:33:17;;;;;;;;;;;9.30;99.90;;;;;;5079180;28;19932;-74
2022/10/12 04:35:43;;;;;;;;;;;9.40;99.90;;;;;;5079554;28;20039;-77
2022/10/12 04:38:08;;;;;;;;;;;9.80;99.90;;;;;;5078118;28;19916;-77
2022/10/12 04:40:34;;;;;;;;;;;9.90;99.90;;;;;;5079616;28;19954;-76
2022/10/12 04:43:00;;;;;;;;;;;9.80;99.90;;;;;;5079168;28;20377;-75
2022/10/12 04:45:25;;;;;;;;;;;9.60;99.90;;;;;;5079361;28;19979;-75
2022/10/12 04:47:51;;;;;;;;;;;9.80;99.90;;;;;;5079502;28;19944;-75
2022/10/12 04:50:16;;;;;;;;;;;9.60;99.90;;;;;;5078914;28;20302;-77
2022/10/12 04:52:42;;;;;;;;;;;9.40;99.90;;;;;;5079257;28;19978;-76
2022/10/12 04:55:08;;;;;;;;;;;9.30;99.90;;;;;;5078065;28;19909;-76
2022/10/12 04:57:33;;;;;;;;;;;9.40;99.90;;;;;;5079285;28;19909;-75
2022/10/12 04:59:59;;;;;;;;;;;9.40;99.90;;;;;;5079367;28;19961;-76
2022/10/12 05:02:24;;;;;;;;;;;9.70;99.90;;;;;;5079322;28;19980;-75
2022/10/12 05:04:51;;;;;;;;;;;9.90;99.90;;;;;;5078854;28;19908;-75
2022/10/12 05:07:16;;;;;;;;;;;10.00;99.90;;;;;;5077903;28;19920;-74
2022/10/12 05:09:42;;;;;;;;;;;10.20;99.90;;;;;;5079383;28;20280;-74
2022/10/12 05:12:08;;;;;;;;;;;9.90;99.90;;;;;;5079225;28;19912;-77
2022/10/12 05:14:33;;;;;;;;;;;9.90;99.90;;;;;;5075852;28;19908;-74
2022/10/12 05:16:59;;;;;;;;;;;9.80;99.90;;;;;;5076058;28;20005;-77
2022/10/12 05:19:24;;;;;;;;;;;9.80;99.90;;;;;;5075845;28;19919;-74
2022/10/12 05:21:52;;;;;;;;;;;9.90;99.90;;;;;;5075993;28;19908;-76
2022/10/12 05:24:17;;;;;;;;;;;9.90;99.90;;;;;;5074175;28;19915;-76
2022/10/12 05:26:43;;;;;;;;;;;9.90;99.90;;;;;;5074581;28;19909;-77
2022/10/12 05:29:08;;;;;;;;;;;9.90;99.90;;;;;;5076270;28;19926;-75
2022/10/12 05:31:34;;;;;;;;;;;9.70;99.90;;;;;;5075695;28;20373;-75
2022/10/12 05:33:59;;;;;;;;;;;9.30;99.90;;;;;;5075314;28;19995;-75
2022/10/12 05:36:25;;;;;;;;;;;9.00;99.90;;;;;;5075611;28;19913;-77
2022/10/12 05:38:51;;;;;;;;;;;8.80;99.90;;;;;;5075610;28;20373;-75
2022/10/12 05:41:16;;;;;;;;;;;8.80;99.90;;;;;;5075399;28;19916;-76
2022/10/12 05:43:42;;;;;;;;;;;8.80;99.90;;;;;;5075127;28;20395;-76
2022/10/12 05:46:07;;;;;;;;;;;9.20;99.90;;;;;;5075322;28;19955;-76
2022/10/12 05:48:33;;;;;;;;;;;9.00;99.90;;;;;;5075210;28;20008;-76
2022/10/12 05:50:59;;;;;;;;;;;8.90;99.90;;;;;;5075485;28;19915;-76
2022/10/12 05:53:24;;;;;;;;;;;8.80;99.90;;;;;;5074891;28;19909;-74
2022/10/12 05:55:51;;;;;;;;;;;8.80;99.90;;;;;;5075302;28;19987;-73
2022/10/12 05:58:16;;;;;;;;;;;8.60;99.90;;;;;;5075005;28;19912;-74
2022/10/12 06:00:42;;;;;;;;;;;8.40;99.90;;;;;;5074975;28;20399;-76
2022/10/12 06:03:08;;;;;;;;;;;8.80;99.90;;;;;;5074804;28;19973;-75
2022/10/12 06:05:33;;;;;;;;;;;8.90;99.90;;;;;;5074864;28;19909;-75
2022/10/12 06:07:59;;;;;;;;;;;8.80;99.90;;;;;;5075105;28;19947;-77
2022/10/12 06:10:24;;;;;;;;;;;9.00;99.90;;;;;;5074999;28;19912;-75
2022/10/12 06:12:50;;;;;;;;;;;9.10;99.90;;;;;;5074999;28;19908;-77
2022/10/12 06:15:15;;;;;;;;;;;8.90;99.90;;;;;;5074674;28;20359;-75
2022/10/12 06:17:41;;;;;;;;;;;9.00;99.90;;;;;;5074613;28;19908;-76
2022/10/12 06:20:07;;;;;;;;;;;9.00;99.90;;;;;;5074980;28;19931;-74
2022/10/12 06:22:32;;;;;;;;;;;8.60;99.90;;;;;;5074670;28;19909;-75
2022/10/12 06:24:58;;;;;;;;;;;8.50;99.90;;;;;;5073994;28;20441;-74
2022/10/12 06:27:24;;;;;;;;;;;8.70;99.90;;;;;;5074673;28;19908;-76
2022/10/12 06:29:49;;;;;;;;;;;8.80;99.90;;;;;;5074925;28;20392;-74
2022/10/12 06:32:15;;;;;;;;;;;9.00;99.90;;;;;;5073284;28;19909;-75
2022/10/12 06:34:41;;;;;;;;;;;9.20;99.90;;;;;;5073976;28;19977;-74
2022/10/12 06:37:06;;;;;;;;;;;8.90;99.90;;;;;;5073219;28;20369;-76
2022/10/12 06:39:32;;;;;;;;;;;8.90;99.90;;;;;;5074323;28;19912;-75
2022/10/12 06:41:57;;;;;;;;;;;8.80;99.90;;;;;;5072898;28;19909;-77
2022/10/12 06:44:23;;;;;;;;;;;8.90;99.90;;;;;;5073901;28;19909;-74
2022/10/12 06:46:50;;;;;;;;;;;9.10;99.90;;;;;;5074210;28;20445;-75
2022/10/12 06:49:16;;;;;;;;;;;9.30;99.90;;;;;;5072814;28;19924;-75
2022/10/12 06:51:42;;;;;;;;;;;9.30;99.90;;;;;;5074057;28;19908;-75
2022/10/12 06:54:07;;;;;;;;;;;9.50;99.90;;;;;;5073734;28;19987;-75
2022/10/12 06:56:33;;;;;;;;;;;9.40;99.90;;;;;;5074016;28;19908;-75
2022/10/12 06:58:59;;;;;;;;;;;9.60;99.90;;;;;;5072642;28;20348;-75
2022/10/12 07:01:24;;;;;;;;;;;9.80;99.90;;;;;;5073914;28;19948;-74
2022/10/12 07:03:50;;;;;;;;;;;9.90;99.90;;;;;;5072246;28;19909;-76
2022/10/12 07:06:16;;;;;;;;;;;10.10;99.90;;;;;;5073786;28;20003;-75
2022/10/12 07:08:41;;;;;;;;;;;10.20;99.90;;;;;;5073835;28;19909;-77
2022/10/12 07:11:08;;;;;;;;;;;10.50;99.90;;;;;;5073878;28;19915;-76
2022/10/12 07:13:34;;;;;;;;;;;10.80;99.90;;;;;;5073613;28;20411;-77
2022/10/12 07:16:00;;;;;;;;;;;12.00;99.90;;;;;;5073767;28;19909;-74
2022/10/12 07:18:25;;;;;;;;;;;12.00;99.90;;;;;;5073473;28;19916;-76
2022/10/12 07:20:51;;;;;;;;;;;12.50;99.90;;;;;;5073701;28;20392;-78
2022/10/12 07:23:16;;;;;;;;;;;12.80;99.90;;;;;;5073564;28;20388;-77
2022/10/12 07:25:52;;;;;;;;;;;12.20;99.90;;;;;;5073639;28;19940;-77
2022/10/12 07:28:18;;;;;;;;;;;12.00;99.90;;;;;;5074254;28;19908;-75
2022/10/12 07:30:44;;;;;;;;;;;11.80;99.90;;;;;;5073303;28;19908;-75
2022/10/12 07:33:10;;;;;;;;;;;12.00;99.90;;;;;;5072097;28;20431;-76
2022/10/12 07:35:36;;;;;;;;;;;12.40;99.90;;;;;;5073490;28;19916;-75
2022/10/12 07:38:03;;;;;;;;;;;13.20;99.90;;;;;;5072897;28;19919;-77
2022/10/12 07:40:30;;;;;;;;;;;14.20;99.90;;;;;;5073518;28;19915;-76
2022/10/12 07:42:56;;;;;;;;;;;15.30;99.20;;;;;;5072053;28;19916;-77
2022/10/12 07:45:21;;;;;;;;;;;16.00;97.10;;;;;;5073043;28;19915;-75
2022/10/12 07:47:47;;;;;;;;;;;16.60;96.80;;;;;;5073290;28;19909;-76
2022/10/12 07:50:13;;;;;;;;;;;17.20;96.20;;;;;;5072981;28;19981;-77
2022/10/12 07:52:39;;;;;;;;;;;17.90;96.70;;;;;;5073253;28;19915;-75
2022/10/12 07:55:05;;;;;;;;;;;18.30;93.70;;;;;;5072808;28;19999;-76
2022/10/12 07:57:30;;;;;;;;;;;19.00;92.90;;;;;;5072025;28;19912;-76
2022/10/12 07:59:56;;;;;;;;;;;19.40;91.30;;;;;;5073139;28;20011;-77
2022/10/12 08:02:21;;;;;;;;;;;20.00;87.20;;;;;;5073222;28;19915;-76
2022/10/12 08:04:47;;;;;;;;;;;20.40;84.70;;;;;;5072724;28;20420;-76
2022/10/12 08:07:12;;;;;;;;;;;19.90;81.20;;;;;;5073264;28;19909;-76
2022/10/12 08:09:38;;;;;;;;;;;18.50;81.40;;;;;;5071844;28;19909;-75
2022/10/12 08:12:04;;;;;;;;;;;17.60;83.50;;;;;;5073202;28;19908;-75
2022/10/12 08:14:30;;;;;;;;;;;16.70;89.10;;;;;;5071352;28;19909;-76
2022/10/12 08:16:56;;;;;;;;;;;15.90;91.30;;;;;;5073000;28;20441;-76
2022/10/12 08:19:21;;;;;;;;;;;15.10;96.60;;;;;;5072961;28;19994;-77
2022/10/12 08:21:48;;;;;;;;;;;15.20;96.30;;;;;;5071740;28;20364;-75
2022/10/12 08:24:13;;;;;;;;;;;15.50;97.00;;;;;;5072616;28;20442;-76
2022/10/12 08:26:39;;;;;;;;;;;17.10;97.10;;;;;;5073052;28;19909;-77
2022/10/12 08:29:05;;;;;;;;;;;18.50;92.70;;;;;;5073427;28;20312;-77
2022/10/12 08:31:31;;;;;;;;;;;19.30;90.50;;;;;;5073278;28;20047;-77
2022/10/12 08:33:57;;;;;;;;;;;20.40;86.90;;;;;;5072639;28;19977;-76
2022/10/12 08:36:22;;;;;;;;;;;20.70;83.80;;;;;;5072912;28;19908;-76
2022/10/12 08:38:52;;;;;;;;;;;21.10;82.20;;;;;;5072770;28;19935;-75
2022/10/12 08:41:22;;;;;;;;;;;21.50;81.20;;;;;;5072641;28;20035;-76
2022/10/12 08:44:06;;;;;;;;;;;21.60;79.10;;;;;;5072541;28;19912;-77
2022/10/12 08:46:31;;;;;;;;;;;22.50;78.00;;;;;;5072811;28;19916;-77
2022/10/12 08:49:05;;;;;;;;;;;22.80;76.30;;;;;;5072846;28;19924;-78
2022/10/12 08:51:35;;;;;;;;;;;23.40;75.50;;;;;;5076604;28;19977;-77
2022/10/12 08:54:11;;;;;;;;;;;23.70;74.10;;;;;;5076055;28;20438;-78
2022/10/12 08:56:39;;;;;;;;;;;25.00;71.10;;;;;;5076500;28;19913;-77
2022/10/12 08:59:04;;;;;;;;;;;25.90;68.00;;;;;;5076254;28;19913;-75
2022/10/12 09:01:37;;;;;;;;;;;26.50;65.40;;;;;;5076309;28;19956;-74
2022/10/12 09:04:12;;;;;;;;;;;26.10;64.40;;;;;;5075992;28;19942;-76
2022/10/12 09:06:46;;;;;;;;;;;26.90;62.90;;;;;;5075861;28;19913;-74
2022/10/12 09:09:30;;;;;;;;;;;27.30;61.40;;;;;;5076062;28;19915;-75
2022/10/12 09:11:56;;;;;;;;;;;28.60;59.30;;;;;;5074750;28;20333;-75
2022/10/12 09:14:25;;;;;;;;;;;28.00;58.20;;;;;;5075635;28;19958;-74
2022/10/12 09:16:50;;;;;;;;;;;28.10;58.00;;;;;;5076077;28;19973;-76
2022/10/12 09:19:20;;;;;;;;;;;28.70;57.60;;;;;;5075892;28;19967;-75
2022/10/12 09:21:47;;;;;;;;;;;28.20;58.30;;;;;;5075945;28;19913;-76
2022/10/12 09:24:23;;;;;;;;;;;28.00;58.10;;;;;;5075553;28;19908;-76
2022/10/12 09:26:50;;;;;;;;;;;29.60;57.00;;;;;;5075935;28;20392;-75
2022/10/12 09:29:26;;;;;;;;;;;30.00;55.10;;;;;;5076249;28;19912;-75
2022/10/12 09:32:11;;;;;;;;;;;30.90;55.90;;;;;;5075876;28;20397;-77
2022/10/12 09:34:36;;;;;;;;;;;33.00;54.70;;;;;;5075674;28;19916;-75
2022/10/12 09:37:03;;;;;;;;;;;34.10;49.70;;;;;;5075661;28;20446;-77
2022/10/12 09:39:34;;;;;;;;;;;33.50;49.30;;;;;;5075540;28;20007;-74
2022/10/12 09:42:00;;;;;;;;;;;33.20;49.90;;;;;;5075464;28;19943;-73
2022/10/12 09:44:31;;;;;;;;;;;30.90;50.90;;;;;;5075086;28;19916;-75
2022/10/12 09:46:57;;;;;;;;;;;27.70;55.80;;;;;;5074161;28;19909;-75
2022/10/12 09:49:39;;;;;;;;;;;26.20;58.20;;;;;;5073810;28;19944;-73
2022/10/12 09:52:06;;;;;;;;;;;25.90;60.60;;;;;;5074671;28;20221;-75
2022/10/12 09:54:32;;;;;;;;;;;25.30;61.50;;;;;;5074840;28;19992;-72
2022/10/12 09:56:58;;;;;;;;;;;24.60;64.60;;;;;;5074069;28;19915;-74
2022/10/12 09:59:37;;;;;;;;;;;24.50;66.10;;;;;;5075171;28;19921;-74
2022/10/12 10:02:12;;;;;;;;;;;26.90;62.90;;;;;;5075010;28;19908;-77
2022/10/12 10:04:38;;;;;;;;;;;30.80;59.50;;;;;;5073442;28;19930;-77
2022/10/12 10:07:22;;;;;;;;;;;32.00;53.20;;;;;;5075105;28;19912;-76
2022/10/12 10:10:03;;;;;;;;;;;32.20;54.00;;;;;;5073725;28;19908;-75
2022/10/12 10:12:28;;;;;;;;;;;32.00;52.10;;;;;;5074979;28;19908;-76
2022/10/12 10:14:55;;;;;;;;;;;32.00;52.50;;;;;;5074579;28;19996;-76
2022/10/12 10:17:28;;;;;;;;;;;33.00;51.90;;;;;;5074697;28;19908;-77
2022/10/12 10:19:55;;;;;;;;;;;34.00;51.20;;;;;;5074707;28;19912;-75
2022/10/12 10:22:21;;;;;;;;;;;35.70;49.60;;;;;;5074854;28;20463;-77
2022/10/12 10:24:54;;;;;;;;;;;35.90;48.00;;;;;;5074387;28;19966;-74
2022/10/12 10:27:28;;;;;;;;;;;36.80;48.20;;;;;;5074649;28;19961;-75
2022/10/12 10:30:06;;;;;;;;;;;35.40;47.20;;;;;;5074928;28;19912;-77
2022/10/12 10:32:31;;;;;;;;;;;33.70;51.40;;;;;;5074615;28;19908;-76
2022/10/12 10:35:01;;;;;;;;;;;35.70;50.60;;;;;;5074223;28;20430;-75
2022/10/12 10:37:27;;;;;;;;;;;36.80;47.40;;;;;;5074473;28;19913;-75
2022/10/12 10:39:54;;;;;;;;;;;34.50;48.60;;;;;;5074355;28;20384;-76
2022/10/12 10:42:28;;;;;;;;;;;32.20;50.10;;;;;;5074158;28;20296;-76
2022/10/12 10:45:01;;;;;;;;;;;30.10;52.10;;;;;;5073993;28;19931;-74
2022/10/12 10:47:28;;;;;;;;;;;28.80;54.90;;;;;;5074334;28;19919;-75
2022/10/12 10:49:54;;;;;;;;;;;28.00;55.90;;;;;;5074002;28;19928;-76
2022/10/12 10:52:22;;;;;;;;;;;28.40;56.70;;;;;;5074214;28;19912;-76
2022/10/12 10:54:48;;;;;;;;;;;30.30;56.30;;;;;;5073614;28;19973;-74
2022/10/12 10:57:19;;;;;;;;;;;30.60;54.00;;;;;;5074154;28;20368;-75
2022/10/12 10:59:44;;;;;;;;;;;28.30;56.20;;;;;;5074108;28;20391;-74
2022/10/12 11:02:14;;;;;;;;;;;26.60;59.60;;;;;;5074044;28;19909;-75
2022/10/12 11:04:43;;;;;;;;;;;25.10;62.40;;;;;;5073330;28;19915;-74
2022/10/12 11:07:18;;;;;;;;;;;24.30;68.00;;;;;;5073893;28;20404;-75
2022/10/12 11:09:45;;;;;;;;;;;24.40;67.50;;;;;;5073873;28;19912;-73
2022/10/12 11:12:16;;;;;;;;;;;24.70;68.40;;;;;;5073106;28;19971;-73
2022/10/12 11:14:47;;;;;;;;;;;24.60;68.30;;;;;;5073446;28;19908;-74
2022/10/12 11:17:18;;;;;;;;;;;24.80;68.00;;;;;;5073666;28;19915;-73
2022/10/12 11:19:53;;;;;;;;;;;24.90;68.30;;;;;;5073436;28;19920;-74
2022/10/12 11:22:24;;;;;;;;;;;24.70;68.60;;;;;;5073702;28;20281;-73
2022/10/12 11:24:53;;;;;;;;;;;23.70;73.00;;;;;;5073239;28;19916;-74
2022/10/12 11:27:22;;;;;;;;;;;24.20;73.00;;;;;;5073617;28;20460;-76
2022/10/12 11:29:49;;;;;;;;;;;24.90;72.80;;;;;;5073986;28;19999;-76
2022/10/12 11:32:25;;;;;;;;;;;29.20;70.00;;;;;;5073634;28;19916;-76
2022/10/12 11:34:53;;;;;;;;;;;31.40;63.30;;;;;;5073115;28;19916;-73
2022/10/12 11:37:20;;;;;;;;;;;28.10;63.10;;;;;;5073610;28;19916;-77
2022/10/12 11:39:48;;;;;;;;;;;25.90;68.90;;;;;;5073342;28;19919;-76
2022/10/12 11:42:19;;;;;;;;;;;30.90;68.30;;;;;;5073216;28;19915;-77
2022/10/12 11:44:46;;;;;;;;;;;34.80;57.70;;;;;;5073115;28;19947;-75
2022/10/12 11:47:20;;;;;;;;;;;35.70;53.50;;;;;;5073350;28;19915;-75
2022/10/12 11:49:52;;;;;;;;;;;35.10;51.60;;;;;;5072875;28;20428;-76
2022/10/12 11:52:18;;;;;;;;;;;29.00;58.10;;;;;;5073261;28;19908;-75
2022/10/12 11:54:51;;;;;;;;;;;26.90;62.70;;;;;;5072536;28;20352;-73
2022/10/12 11:57:21;;;;;;;;;;;25.00;67.80;;;;;;5073480;28;19913;-74
2022/10/12 11:59:49;;;;;;;;;;;23.60;74.60;;;;;;5073052;28;19916;-73
2022/10/12 12:02:21;;;;;;;;;;;23.60;78.10;;;;;;5073148;28;19909;-73
2022/10/12 12:04:47;;;;;;;;;;;25.90;76.40;;;;;;5071387;28;19913;-74
2022/10/12 12:07:15;;;;;;;;;;;28.80;63.90;;;;;;5073121;28;19955;-73
2022/10/12 12:09:42;;;;;;;;;;;26.90;65.50;;;;;;5073203;28;19916;-74
2022/10/12 12:12:09;;;;;;;;;;;27.80;68.80;;;;;;5072997;28;19948;-76
2022/10/12 12:14:34;;;;;;;;;;;;;;;;;;5072762;28;19991;-74
2022/10/12 12:17:20;;;;;;;;;;;35.70;53.20;;;;;;5072820;28;19954;-75
2022/10/12 12:19:56;;;;;;;;;;;37.10;51.00;;;;;;5058754;28;19959;-75
2022/10/12 12:22:31;;;;;;;;;;;38.00;48.80;;;;;;5072856;28;19908;-75
2022/10/12 12:25:13;;;;;;;;;;;36.00;48.60;;;;;;5076084;28;20292;-75
2022/10/12 12:27:44;;;;;;;;;;;37.40;48.10;;;;;;5077225;28;20284;-75
2022/10/12 12:30:20;;;;;;;;;;;38.50;45.90;;;;;;5077336;28;20004;-77
2022/10/12 12:32:46;;;;;;;;;;;37.20;45.20;;;;;;5075590;28;19919;-77
2022/10/12 12:35:20;;;;;;;;;;;36.20;46.40;;;;;;5076390;28;19908;-75
2022/10/12 12:37:47;;;;;;;;;;;36.00;46.20;;;;;;5076866;28;20000;-75
2022/10/12 12:40:22;;;;;;;;;;;36.60;45.40;;;;;;5076673;28;19912;-77
2022/10/12 12:42:48;;;;;;;;;;;36.80;45.20;;;;;;5076475;28;19943;-75
2022/10/12 12:45:31;;;;;;;;;;;38.30;44.50;;;;;;5076265;28;19959;-77
2022/10/12 12:47:57;;;;;;;;;;;36.90;44.50;;;;;;5076548;28;20376;-74
2022/10/12 12:50:25;;;;;;;;;;;33.60;48.40;;;;;;5076234;28;19946;-75
2022/10/12 12:53:01;;;;;;;;;;;31.40;50.40;;;;;;5076466;28;20019;-74
2022/10/12 12:55:36;;;;;;;;;;;29.80;53.00;;;;;;5076117;28;19920;-76
2022/10/12 12:58:11;;;;;;;;;;;28.20;55.20;;;;;;5076409;28;19908;-76
2022/10/12 13:00:45;;;;;;;;;;;27.70;57.80;;;;;;5076346;28;19913;-74
2022/10/12 13:03:17;;;;;;;;;;;29.40;56.30;;;;;;5076131;28;19909;-74
2022/10/12 13:06:01;;;;;;;;;;;30.40;55.80;;;;;;5074513;28;20008;-77
2022/10/12 13:08:36;;;;;;;;;;;34.90;52.90;;;;;;5074774;28;19920;-76
2022/10/12 13:11:20;;;;;;;;;;;36.30;48.90;;;;;;5076143;28;20003;-76
2022/10/12 13:13:46;;;;;;;;;;;34.50;48.80;;;;;;5076353;28;20418;-74
2022/10/12 13:16:13;;;;;;;;;;;32.70;50.70;;;;;;5075545;28;19912;-76
2022/10/12 13:18:39;;;;;;;;;;;31.40;51.40;;;;;;5075737;28;19999;-73
2022/10/12 13:21:06;;;;;;;;;;;31.10;52.70;;;;;;5075893;28;19951;-75
2022/10/12 13:23:32;;;;;;;;;;;29.60;54.80;;;;;;5075947;28;20011;-75
2022/10/12 13:26:05;;;;;;;;;;;29.50;55.40;;;;;;5075535;28;19951;-74
2022/10/12 13:28:33;;;;;;;;;;;28.50;56.30;;;;;;5075694;28;19912;-76
2022/10/12 13:31:28;;;;;;;;;;;27.30;58.00;;;;;;5075989;28;19908;-74
2022/10/12 13:33:53;;;;;;;;;;;26.10;59.20;;;;;;5058100;28;19959;-74
2022/10/12 13:36:22;;;;;;;;;;;28.80;58.10;;;;;;5074274;28;20384;-73
2022/10/12 13:38:53;;;;;;;;;;;28.90;54.20;;;;;;5074337;28;19909;-74
2022/10/12 13:41:19;;;;;;;;;;;27.50;55.20;;;;;;5075498;28;20395;-75
2022/10/12 13:43:50;;;;;;;;;;;28.00;56.60;;;;;;5075586;28;19909;-75
2022/10/12 13:46:34;;;;;;;;;;;30.00;54.80;;;;;;5074948;28;19909;-75
2022/10/12 13:49:01;;;;;;;;;;;29.20;53.80;;;;;;5075220;28;20011;-76
2022/10/12 13:51:28;;;;;;;;;;;27.60;55.40;;;;;;5075344;28;19967;-73
2022/10/12 13:53:54;;;;;;;;;;;25.80;58.60;;;;;;5075248;28;19915;-75
2022/10/12 13:56:21;;;;;;;;;;;25.30;59.90;;;;;;5074826;28;19908;-76
2022/10/12 13:58:47;;;;;;;;;;;24.30;62.60;;;;;;5075310;28;19920;-75
2022/10/12 14:01:12;;;;;;;;;;;24.30;64.40;;;;;;5075160;28;19908;-73
2022/10/12 14:03:39;;;;;;;;;;;24.70;64.20;;;;;;5073862;28;19915;-74
2022/10/12 14:06:06;;;;;;;;;;;24.50;65.30;;;;;;5074797;28;20373;-73
2022/10/12 14:08:33;;;;;;;;;;;24.80;65.60;;;;;;5074911;28;20000;-74
2022/10/12 14:10:58;;;;;;;;;;;24.50;66.20;;;;;;5073699;28;19909;-73
2022/10/12 14:13:29;;;;;;;;;;;24.10;67.50;;;;;;5075351;28;19908;-74
2022/10/12 14:15:55;;;;;;;;;;;23.70;68.20;;;;;;5064365;28;19908;-75
2022/10/12 14:18:31;;;;;;;;;;;23.50;69.60;;;;;;5054670;28;19916;-74
2022/10/12 14:21:08;;;;;;;;;;;23.80;69.50;;;;;;5054918;28;20296;-76
2022/10/12 14:23:34;;;;;;;;;;;23.90;70.30;;;;;;5054770;28;20004;-75
2022/10/12 14:26:00;;;;;;;;;;;24.30;68.40;;;;;;5054410;28;19941;-75